Time;durP1;ratioP1;P1;durP2;ratioP2;P2;SDS_P1;SDS_P2;PMS_P1;PMS_P2;Temp;Humidity;BMP_temperature;BMP_pressure;BME280_temperature;BME280_humidity;BME280_pressure;Samples;Min_cycle;Max_cycle;Signal;HPM_P1;HPM_P2
2022/11/10 05:08:05;;;;;;;;;;;;;;;;;;;;;
2022/11/10 05:22:36;;;;;;;63.33;33.45;;;;;;;;;;5125919;23;20059;-96
2022/11/10 05:51:00;;;;;;;62.40;33.83;;;;;;;;;;5056519;28;20045;-95
2022/11/10 05:53:26;;;;;;;61.92;33.08;;;;;;;;;;5040193;28;20029;-96
2022/11/10 05:55:52;;;;;;;61.60;34.38;;;;;;;;;;5041114;28;20104;-96
2022/11/10 05:58:18;;;;;;;65.38;35.03;;;;;;;;;;5041487;28;20112;-96
2022/11/10 06:00:44;;;;;;;62.42;34.38;;;;;;;;;;5040962;28;20496;-95
2022/11/10 06:03:15;;;;;;;66.13;35.97;;;;;;;;;;5041390;28;20469;-95
2022/11/10 06:05:41;;;;;;;67.63;35.03;;;;;;;;;;5043133;28;20112;-95
2022/11/10 06:08:23;;;;;;;;;;;;;;;;;;;;;
2022/11/10 06:17:01;;;;;;;66.60;35.08;;;;;;;;;;5077586;28;20041;-95
2022/11/10 06:20:02;;;;;;;63.30;34.25;;;;;;;;;;5060771;28;20064;-94
2022/11/10 06:22:31;;;;;;;59.10;31.38;;;;;;;;;;5061117;28;20036;-95
2022/11/10 06:25:13;;;;;;;;;;;;;;;;;;;;;
2022/11/10 06:28:16;;;;;;;;;;;;;;;;;;;;;
2022/11/10 06:30:58;;;;;;;58.95;32.58;;;;;;;;;;5017722;28;20032;-95
2022/11/10 06:33:33;;;;;;;60.80;33.20;;;;;;;;;;5000833;28;20042;-96
2022/11/10 14:51:31;;;;;;;26.25;20.77;;;;;;;;;;6011128;23;20173;-94
2022/11/10 14:53:57;;;;;;;22.95;16.83;;;;;;;;;;5060195;28;20024;-94
2022/11/10 14:56:28;;;;;;;17.23;13.73;;;;;;;;;;5060906;28;20032;-94
2022/11/10 14:58:57;;;;;;;15.45;12.45;;;;;;;;;;5080153;28;20027;-96
2022/11/10 15:01:34;;;;;;;14.38;11.45;;;;;;;;;;5063224;28;20440;-96
2022/11/10 15:04:04;;;;;;;14.60;10.65;;;;;;;;;;5059703;28;20115;-95
2022/11/10 15:06:31;;;;;;;21.70;14.90;;;;;;;;;;5058474;28;20016;-93
2022/11/10 15:08:57;;;;;;;19.38;14.38;;;;;;;;;;5057750;28;20027;-93
2022/11/10 15:11:52;;;;;;;17.17;11.85;;;;;;;;;;5058292;28;20028;-94
2022/11/10 15:14:40;;;;;;;16.13;11.70;;;;;;;;;;5037339;28;20124;-94
2022/11/10 15:17:09;;;;;;;18.40;12.68;;;;;;;;;;5058373;28;20492;-95
2022/11/10 15:19:36;;;;;;;18.45;12.52;;;;;;;;;;5058059;28;20016;-93
2022/11/10 15:22:28;;;;;;;21.58;16.75;;;;;;;;;;5057851;28;20119;-95
2022/11/10 15:24:55;;;;;;;26.02;18.02;;;;;;;;;;5046996;28;20064;-94
2022/11/10 15:27:26;;;;;;;21.05;15.82;;;;;;;;;;5057578;28;20024;-95
2022/11/10 15:29:53;;;;;;;23.80;16.92;;;;;;;;;;5057395;28;20023;-94
2022/11/10 15:32:20;;;;;;;24.70;18.30;;;;;;;;;;5057447;28;20033;-92
2022/11/10 15:34:47;;;;;;;24.45;16.52;;;;;;;;;;5057737;28;20017;-94
2022/11/10 15:37:20;;;;;;;26.40;19.35;;;;;;;;;;5061727;28;20384;-94
2022/11/10 15:39:47;;;;;;;20.83;15.30;;;;;;;;;;5058009;28;20115;-94
2022/11/10 15:42:20;;;;;;;25.75;17.50;;;;;;;;;;5057632;28;20082;-93
2022/11/10 15:44:46;;;;;;;19.90;15.00;;;;;;;;;;5057372;28;20567;-93
2022/11/10 15:47:13;;;;;;;22.13;15.50;;;;;;;;;;5057025;28;20036;-91
2022/11/10 15:49:40;;;;;;;20.63;14.55;;;;;;;;;;5057167;28;20035;-93
2022/11/10 15:52:17;;;;;;;19.10;13.95;;;;;;;;;;5056971;28;20044;-92
2022/11/10 15:54:44;;;;;;;20.45;13.98;;;;;;;;;;5057815;28;20032;-92
2022/11/10 15:57:12;;;;;;;18.48;13.50;;;;;;;;;;5057251;28;20028;-93
2022/11/10 15:59:38;;;;;;;15.50;12.48;;;;;;;;;;5057287;28;20036;-91
2022/11/10 16:02:10;;;;;;;15.52;11.27;;;;;;;;;;5053599;28;20515;-92
2022/11/10 16:04:36;;;;;;;18.83;13.00;;;;;;;;;;5053677;28;20466;-92
2022/11/10 16:07:02;;;;;;;19.90;14.30;;;;;;;;;;5053579;28;20036;-91
2022/11/10 16:09:28;;;;;;;21.65;14.00;;;;;;;;;;5054413;28;20071;-93
2022/11/10 16:11:57;;;;;;;19.23;12.82;;;;;;;;;;5055197;28;20417;-91
2022/11/10 16:14:24;;;;;;;17.23;13.65;;;;;;;;;;5055421;28;20029;-92
2022/11/10 16:16:50;;;;;;;18.67;13.10;;;;;;;;;;5055743;28;20025;-94
2022/11/10 16:19:18;;;;;;;18.42;13.35;;;;;;;;;;5066924;28;20025;-92
2022/11/10 16:21:46;;;;;;;20.60;13.38;;;;;;;;;;5067582;28;20090;-91
2022/11/10 16:24:12;;;;;;;20.90;14.23;;;;;;;;;;5054310;28;20079;-92
2022/11/10 16:26:38;;;;;;;21.05;13.23;;;;;;;;;;5053640;28;20025;-90
2022/11/10 16:29:09;;;;;;;20.13;13.30;;;;;;;;;;5053400;28;20055;-93
2022/11/10 16:31:37;;;;;;;21.45;13.23;;;;;;;;;;5053563;28;20029;-92
2022/11/10 16:34:03;;;;;;;28.33;18.45;;;;;;;;;;5053217;28;20389;-93
2022/11/10 16:36:31;;;;;;;28.05;19.15;;;;;;;;;;5053349;28;20021;-92
2022/11/10 16:39:01;;;;;;;30.27;20.50;;;;;;;;;;5053621;28;20025;-92
2022/11/10 16:41:29;;;;;;;32.38;20.65;;;;;;;;;;5053829;28;20065;-93
2022/11/10 16:43:55;;;;;;;25.00;16.85;;;;;;;;;;5053871;28;20072;-94
2022/11/10 16:46:26;;;;;;;22.25;16.13;;;;;;;;;;5054622;28;20071;-95
2022/11/10 16:48:54;;;;;;;24.38;17.52;;;;;;;;;;5054977;28;20063;-91
2022/11/10 16:51:34;;;;;;;26.58;17.75;;;;;;;;;;5068146;28;20044;-92
2022/11/10 16:54:00;;;;;;;32.60;21.42;;;;;;;;;;5058628;28;20041;-95
2022/11/10 16:56:29;;;;;;;28.75;18.83;;;;;;;;;;5058190;28;20028;-95
2022/11/10 16:58:59;;;;;;;23.77;17.40;;;;;;;;;;5056509;28;20025;-94
2022/11/10 17:01:29;;;;;;;26.95;17.52;;;;;;;;;;5057749;28;20044;-95
2022/11/10 17:03:57;;;;;;;26.63;19.25;;;;;;;;;;5057461;28;20388;-93
2022/11/10 17:06:24;;;;;;;33.40;22.33;;;;;;;;;;5058132;28;20106;-94
2022/11/10 17:08:52;;;;;;;31.50;22.30;;;;;;;;;;5056880;28;20108;-93
2022/11/10 17:11:18;;;;;;;32.30;20.08;;;;;;;;;;5057809;28;20016;-92
2022/11/10 17:13:45;;;;;;;24.83;16.40;;;;;;;;;;5073859;28;20090;-93
2022/11/10 17:16:30;;;;;;;21.85;16.27;;;;;;;;;;5056359;28;20460;-94
2022/11/10 17:18:57;;;;;;;22.95;16.63;;;;;;;;;;5057277;28;20029;-91
2022/11/10 17:21:23;;;;;;;23.00;15.77;;;;;;;;;;5056926;28;20071;-92
2022/11/10 17:23:49;;;;;;;22.55;16.33;;;;;;;;;;5056423;28;20020;-90
2022/11/10 17:26:17;;;;;;;24.27;16.35;;;;;;;;;;5055785;28;20564;-95
2022/11/10 17:28:43;;;;;;;37.75;26.48;;;;;;;;;;5056718;28;20033;-91
2022/11/10 17:31:11;;;;;;;32.28;22.70;;;;;;;;;;5056009;28;20032;-89
2022/11/10 17:33:37;;;;;;;27.90;20.60;;;;;;;;;;5056899;28;20035;-92
2022/11/10 17:36:04;;;;;;;24.13;16.98;;;;;;;;;;5059132;28;20028;-92
2022/11/10 17:38:31;;;;;;;19.38;14.32;;;;;;;;;;5059869;28;20047;-90
2022/11/10 17:40:57;;;;;;;20.48;14.35;;;;;;;;;;5057532;28;20036;-92
2022/11/10 17:43:23;;;;;;;21.60;15.68;;;;;;;;;;5063936;28;20056;-93
2022/11/10 17:45:52;;;;;;;31.50;20.60;;;;;;;;;;5068378;28;20071;-92
2022/11/10 17:48:20;;;;;;;28.95;19.33;;;;;;;;;;5063502;28;20024;-91
2022/11/10 17:50:48;;;;;;;25.95;18.27;;;;;;;;;;5062560;28;20107;-91
2022/11/10 17:53:31;;;;;;;23.83;17.23;;;;;;;;;;5062062;28;20040;-93
2022/11/10 17:55:57;;;;;;;33.03;22.05;;;;;;;;;;5071749;28;20028;-94
2022/11/10 17:58:23;;;;;;;30.45;20.45;;;;;;;;;;5069267;28;20032;-90
2022/11/10 18:00:53;;;;;;;28.40;18.30;;;;;;;;;;5071797;28;20159;-93
2022/11/10 18:03:20;;;;;;;24.23;16.90;;;;;;;;;;5066001;28;20024;-94
2022/11/10 18:05:49;;;;;;;24.25;15.70;;;;;;;;;;5064637;28;20043;-90
2022/11/10 18:08:25;;;;;;;23.08;16.20;;;;;;;;;;5083989;28;20020;-93
2022/11/10 18:10:51;;;;;;;;;;;;;;;;;;5063449;28;20025;-91
2022/11/10 18:13:17;;;;;;;18.88;13.10;;;;;;;;;;5079221;28;20280;-92
2022/11/10 18:15:44;;;;;;;24.13;17.10;;;;;;;;;;5076248;28;20032;-93
2022/11/10 18:18:14;;;;;;;24.98;16.08;;;;;;;;;;5046597;28;20029;-92
2022/11/10 18:20:40;;;;;;;39.08;23.27;;;;;;;;;;5046081;28;20029;-93
2022/11/10 18:23:10;;;;;;;22.17;16.38;;;;;;;;;;5111387;23;20048;-93
2022/11/10 18:25:37;;;;;;;25.08;18.30;;;;;;;;;;5062206;28;20029;-95
2022/11/10 18:28:03;;;;;;;31.40;21.67;;;;;;;;;;5057327;28;20028;-95
2022/11/10 18:30:29;;;;;;;25.83;16.83;;;;;;;;;;5056432;28;20051;-94
2022/11/10 18:32:56;;;;;;;26.38;17.25;;;;;;;;;;5056912;28;20029;-94
2022/11/10 18:35:22;;;;;;;28.60;18.27;;;;;;;;;;5055627;28;20044;-93
2022/11/10 18:37:48;;;;;;;26.83;16.92;;;;;;;;;;5055840;28;20021;-92
2022/11/10 18:40:14;;;;;;;22.65;16.30;;;;;;;;;;5056907;28;20052;-94
2022/11/10 18:43:06;;;;;;;21.02;14.20;;;;;;;;;;5061455;28;20028;-96
2022/11/10 18:45:43;;;;;;;19.45;14.27;;;;;;;;;;5061127;28;20017;-96
2022/11/10 18:48:12;;;;;;;25.38;17.33;;;;;;;;;;5061514;28;20068;-95
2022/11/10 18:50:38;;;;;;;21.50;14.60;;;;;;;;;;5061465;28;20446;-96
2022/11/10 18:53:05;;;;;;;21.70;14.07;;;;;;;;;;5057879;28;20081;-94
2022/11/10 18:55:33;;;;;;;22.10;14.90;;;;;;;;;;5058355;28;20025;-96
2022/11/10 18:57:59;;;;;;;23.65;16.73;;;;;;;;;;5063376;28;19997;-93
2022/11/10 19:00:28;;;;;;;24.80;17.60;;;;;;;;;;5058235;28;20121;-96
2022/11/10 19:02:54;;;;;;;25.60;17.35;;;;;;;;;;5056692;28;20045;-96
2022/11/10 19:05:21;;;;;;;33.63;19.58;;;;;;;;;;5056922;28;20025;-96
2022/11/10 19:07:47;;;;;;;23.70;16.73;;;;;;;;;;5059041;28;20496;-94
2022/11/10 19:10:17;;;;;;;24.75;15.40;;;;;;;;;;5069388;28;20025;-93
2022/11/10 19:12:43;;;;;;;22.08;14.75;;;;;;;;;;5075094;28;20028;-94
2022/11/10 19:15:10;;;;;;;26.23;18.67;;;;;;;;;;5064580;28;20032;-93
2022/11/10 19:17:36;;;;;;;26.50;18.15;;;;;;;;;;5059349;28;20039;-94
2022/11/10 19:20:02;;;;;;;26.75;18.55;;;;;;;;;;5057758;28;20055;-93
2022/11/10 19:22:29;;;;;;;20.65;15.15;;;;;;;;;;5063186;28;20041;-93
2022/11/10 19:24:56;;;;;;;17.33;11.90;;;;;;;;;;5060467;28;20043;-93
2022/11/10 19:27:22;;;;;;;20.33;13.77;;;;;;;;;;5057937;28;20041;-93
2022/11/10 19:29:49;;;;;;;23.27;14.57;;;;;;;;;;5056933;28;20025;-94
2022/11/10 19:32:15;;;;;;;21.42;15.55;;;;;;;;;;5061184;28;20020;-95
2022/11/10 19:34:41;;;;;;;19.17;14.15;;;;;;;;;;5061994;28;20036;-94
2022/11/10 19:37:08;;;;;;;27.50;18.25;;;;;;;;;;5063835;28;20119;-93
2022/11/10 19:39:37;;;;;;;30.27;18.92;;;;;;;;;;5060118;28;20029;-95
2022/11/10 19:42:03;;;;;;;18.35;13.80;;;;;;;;;;5044019;28;20048;-94
2022/11/10 19:45:05;;;;;;;18.13;13.35;;;;;;;;;;5058442;28;20026;-93
2022/11/10 19:47:31;;;;;;;25.45;17.27;;;;;;;;;;5057302;28;20025;-95
2022/11/10 19:49:58;;;;;;;25.00;15.38;;;;;;;;;;5061481;28;20113;-92
2022/11/10 19:52:52;;;;;;;22.83;15.20;;;;;;;;;;5060296;28;20071;-95
2022/11/10 20:08:11;;;;;;;39.20;25.60;;;;;;;;;;5008357;28;20037;-94
2022/11/10 20:11:01;;;;;;;37.88;26.13;;;;;;;;;;5061220;28;20067;-96
2022/11/10 20:13:40;;;;;;;44.03;27.55;;;;;;;;;;5047711;28;20036;-96
2022/11/10 20:16:07;;;;;;;28.90;21.45;;;;;;;;;;5053693;28;20500;-95
2022/11/10 20:18:36;;;;;;;31.30;23.00;;;;;;;;;;5051941;28;20025;-96
2022/11/10 20:21:05;;;;;;;34.25;23.05;;;;;;;;;;5051924;28;20045;-95
2022/11/10 20:26:42;;;;;;;38.58;25.23;;;;;;;;;;5068558;28;20040;-96
2022/11/10 20:29:12;;;;;;;35.85;24.92;;;;;;;;;;5056398;28;20029;-95
2022/11/10 20:31:38;;;;;;;36.05;24.77;;;;;;;;;;5036962;28;20040;-95
2022/11/10 20:34:04;;;;;;;47.80;31.30;;;;;;;;;;5049715;28;20035;-94
2022/11/10 20:36:32;;;;;;;37.60;23.65;;;;;;;;;;5046660;28;20497;-94
2022/11/10 20:38:59;;;;;;;32.80;22.98;;;;;;;;;;5043848;28;20420;-94
2022/11/10 20:41:27;;;;;;;40.05;26.90;;;;;;;;;;5047616;28;20036;-94
2022/11/10 20:43:59;;;;;;;27.70;20.90;;;;;;;;;;5050699;28;20029;-96
2022/11/10 20:46:35;;;;;;;35.53;23.73;;;;;;;;;;5052191;28;20033;-95
2022/11/10 21:15:20;;;;;;;27.50;17.67;;;;;;;;;;4919091;29;20076;-96
2022/11/10 21:30:21;;;;;;;19.90;13.23;;;;;;;;;;4840650;29;20030;-95
2022/11/10 21:33:03;;;;;;;22.23;14.82;;;;;;;;;;4828677;29;20042;-95
2022/11/10 21:35:40;;;;;;;21.70;15.27;;;;;;;;;;5153552;23;20044;-94
2022/11/10 21:47:28;;;;;;;37.33;23.38;;;;;;;;;;5074335;28;20044;-96
2022/11/10 22:03:37;;;;;;;27.10;16.08;;;;;;;;;;4931791;29;20139;-96
2022/11/10 22:31:49;;;;;;;;;;;;;;;;;;;;;
2022/11/10 23:11:23;;;;;;;;;;;;;;;;;;;;;
2022/11/10 23:33:11;;;;;;;;;;;;;;;;;;;;;
2022/11/10 23:42:06;;;;;;;;;;;;;;;;;;;;;
2022/11/10 23:48:33;;;;;;;;;;;;;;;;;;;;;
2022/11/10 23:51:33;;;;;;;;;;;;;;;;;;;;;
